Terminal Aerodrome Forecast
Issued by NWS

Home | Current Version | Previous Version | Text Only | Print | Product List | Glossary On
Versions: 1 2 3 4 5 6 7 8 9 10 11 12 13 14 15 16 17 18 19 20 21 22 23
114
FTUS43 KGRB 260717 AAA
TAFATW
TAF AMD
KATW 260717Z 2607/2706 18005KT 1 1/2SM BR OVC004
      TEMPO 2613/2614 3SM BR BKN006
     FM261400 21010G17KT P6SM SCT025 BKN040
     FM262300 16007KT P6SM SCT045 BKN250=

USA.gov is the U.S. government's official web portal to all federal, state and local government web resources and services.